sensor_id;sensor_type;location;lat;lon;timestamp;P1;durP1;ratioP1;P2;durP2;ratioP2
71172;SDS011;58875;51.996;4.504;2023-07-30T00:02:16;8.07;;;5.96;;
71172;SDS011;58875;51.996;4.504;2023-07-30T00:04:42;8.76;;;6.42;;
71172;SDS011;58875;51.996;4.504;2023-07-30T00:07:08;9.89;;;7.24;;
71172;SDS011;58875;51.996;4.504;2023-07-30T00:09:33;8.96;;;6.59;;
71172;SDS011;58875;51.996;4.504;2023-07-30T00:11:59;9.38;;;6.75;;
71172;SDS011;58875;51.996;4.504;2023-07-30T00:14:24;10.45;;;7.34;;
71172;SDS011;58875;51.996;4.504;2023-07-30T00:16:50;11.09;;;7.72;;
71172;SDS011;58875;51.996;4.504;2023-07-30T00:19:15;9.94;;;7.08;;
71172;SDS011;58875;51.996;4.504;2023-07-30T00:21:41;8.69;;;6.25;;
71172;SDS011;58875;51.996;4.504;2023-07-30T00:24:11;9.98;;;7.03;;
71172;SDS011;58875;51.996;4.504;2023-07-30T00:26:36;8.90;;;6.44;;
71172;SDS011;58875;51.996;4.504;2023-07-30T00:29:03;9.50;;;6.86;;
71172;SDS011;58875;51.996;4.504;2023-07-30T00:31:29;9.51;;;6.92;;
71172;SDS011;58875;51.996;4.504;2023-07-30T00:33:54;10.26;;;7.26;;
71172;SDS011;58875;51.996;4.504;2023-07-30T00:36:20;9.29;;;6.60;;
71172;SDS011;58875;51.996;4.504;2023-07-30T00:38:46;9.10;;;6.54;;
71172;SDS011;58875;51.996;4.504;2023-07-30T00:41:11;8.99;;;6.47;;
71172;SDS011;58875;51.996;4.504;2023-07-30T00:43:37;9.85;;;7.00;;
71172;SDS011;58875;51.996;4.504;2023-07-30T00:46:02;9.91;;;7.03;;
71172;SDS011;58875;51.996;4.504;2023-07-30T00:48:28;10.00;;;7.07;;
71172;SDS011;58875;51.996;4.504;2023-07-30T00:50:55;10.67;;;7.53;;
71172;SDS011;58875;51.996;4.504;2023-07-30T00:53:21;10.17;;;7.21;;
71172;SDS011;58875;51.996;4.504;2023-07-30T00:55:48;10.51;;;7.37;;
71172;SDS011;58875;51.996;4.504;2023-07-30T00:58:15;10.57;;;7.41;;
71172;SDS011;58875;51.996;4.504;2023-07-30T01:00:41;11.18;;;7.75;;
71172;SDS011;58875;51.996;4.504;2023-07-30T01:03:07;10.94;;;7.74;;
71172;SDS011;58875;51.996;4.504;2023-07-30T01:05:33;10.13;;;7.26;;
71172;SDS011;58875;51.996;4.504;2023-07-30T01:07:58;9.87;;;6.96;;
71172;SDS011;58875;51.996;4.504;2023-07-30T01:10:24;10.94;;;7.60;;
71172;SDS011;58875;51.996;4.504;2023-07-30T01:12:51;10.68;;;7.53;;
71172;SDS011;58875;51.996;4.504;2023-07-30T01:15:18;10.15;;;7.07;;
71172;SDS011;58875;51.996;4.504;2023-07-30T01:17:44;12.01;;;8.29;;
71172;SDS011;58875;51.996;4.504;2023-07-30T01:20:10;10.54;;;7.34;;
71172;SDS011;58875;51.996;4.504;2023-07-30T01:22:37;10.94;;;7.68;;
71172;SDS011;58875;51.996;4.504;2023-07-30T01:25:02;9.80;;;7.00;;
71172;SDS011;58875;51.996;4.504;2023-07-30T01:27:29;9.52;;;6.77;;
71172;SDS011;58875;51.996;4.504;2023-07-30T01:30:01;10.42;;;7.24;;
71172;SDS011;58875;51.996;4.504;2023-07-30T01:32:35;10.69;;;7.28;;
71172;SDS011;58875;51.996;4.504;2023-07-30T01:35:02;12.30;;;8.37;;
71172;SDS011;58875;51.996;4.504;2023-07-30T01:37:32;11.00;;;7.56;;
71172;SDS011;58875;51.996;4.504;2023-07-30T01:39:59;12.08;;;8.20;;
71172;SDS011;58875;51.996;4.504;2023-07-30T01:42:29;12.17;;;8.22;;
71172;SDS011;58875;51.996;4.504;2023-07-30T01:44:56;10.70;;;7.32;;
71172;SDS011;58875;51.996;4.504;2023-07-30T01:47:21;11.28;;;7.77;;
71172;SDS011;58875;51.996;4.504;2023-07-30T01:49:47;11.20;;;7.61;;
71172;SDS011;58875;51.996;4.504;2023-07-30T01:52:13;10.89;;;7.40;;
71172;SDS011;58875;51.996;4.504;2023-07-30T01:54:38;11.27;;;7.71;;
71172;SDS011;58875;51.996;4.504;2023-07-30T01:57:04;11.90;;;8.12;;
71172;SDS011;58875;51.996;4.504;2023-07-30T01:59:29;11.39;;;7.87;;
71172;SDS011;58875;51.996;4.504;2023-07-30T02:01:55;10.61;;;7.35;;
71172;SDS011;58875;51.996;4.504;2023-07-30T02:04:20;10.48;;;7.13;;
71172;SDS011;58875;51.996;4.504;2023-07-30T02:06:46;12.52;;;8.37;;
71172;SDS011;58875;51.996;4.504;2023-07-30T02:09:11;11.45;;;7.68;;
71172;SDS011;58875;51.996;4.504;2023-07-30T02:11:37;11.72;;;7.85;;
71172;SDS011;58875;51.996;4.504;2023-07-30T02:14:02;11.63;;;7.85;;
71172;SDS011;58875;51.996;4.504;2023-07-30T02:16:28;12.03;;;8.18;;
71172;SDS011;58875;51.996;4.504;2023-07-30T02:18:53;12.03;;;8.07;;
71172;SDS011;58875;51.996;4.504;2023-07-30T02:21:19;12.59;;;8.40;;
71172;SDS011;58875;51.996;4.504;2023-07-30T02:23:44;11.75;;;7.83;;
71172;SDS011;58875;51.996;4.504;2023-07-30T02:26:10;12.20;;;8.09;;
71172;SDS011;58875;51.996;4.504;2023-07-30T02:28:35;12.35;;;8.23;;
71172;SDS011;58875;51.996;4.504;2023-07-30T02:31:01;11.96;;;8.01;;
71172;SDS011;58875;51.996;4.504;2023-07-30T02:33:26;12.60;;;8.36;;
71172;SDS011;58875;51.996;4.504;2023-07-30T02:35:52;12.75;;;8.53;;
71172;SDS011;58875;51.996;4.504;2023-07-30T02:38:17;12.79;;;8.57;;
71172;SDS011;58875;51.996;4.504;2023-07-30T02:40:43;13.96;;;9.23;;
71172;SDS011;58875;51.996;4.504;2023-07-30T02:43:08;13.30;;;8.86;;
71172;SDS011;58875;51.996;4.504;2023-07-30T02:45:34;12.38;;;8.25;;
71172;SDS011;58875;51.996;4.504;2023-07-30T02:47:59;13.84;;;9.02;;
71172;SDS011;58875;51.996;4.504;2023-07-30T02:50:25;12.41;;;8.25;;
71172;SDS011;58875;51.996;4.504;2023-07-30T02:52:50;11.79;;;8.00;;
71172;SDS011;58875;51.996;4.504;2023-07-30T02:55:16;11.44;;;7.72;;
71172;SDS011;58875;51.996;4.504;2023-07-30T02:57:42;10.43;;;7.22;;
71172;SDS011;58875;51.996;4.504;2023-07-30T03:00:07;10.57;;;7.44;;
71172;SDS011;58875;51.996;4.504;2023-07-30T03:02:34;10.33;;;7.22;;
71172;SDS011;58875;51.996;4.504;2023-07-30T03:04:59;11.50;;;7.96;;
71172;SDS011;58875;51.996;4.504;2023-07-30T03:07:25;11.82;;;7.95;;
71172;SDS011;58875;51.996;4.504;2023-07-30T03:09:51;11.34;;;7.77;;
71172;SDS011;58875;51.996;4.504;2023-07-30T03:12:16;11.20;;;7.78;;
71172;SDS011;58875;51.996;4.504;2023-07-30T03:14:42;10.51;;;7.42;;
71172;SDS011;58875;51.996;4.504;2023-07-30T03:17:07;10.57;;;7.27;;
71172;SDS011;58875;51.996;4.504;2023-07-30T03:19:33;10.15;;;7.02;;
71172;SDS011;58875;51.996;4.504;2023-07-30T03:21:58;11.14;;;7.62;;
71172;SDS011;58875;51.996;4.504;2023-07-30T03:24:24;10.97;;;7.42;;
71172;SDS011;58875;51.996;4.504;2023-07-30T03:26:49;11.95;;;8.06;;
71172;SDS011;58875;51.996;4.504;2023-07-30T03:29:15;10.96;;;7.38;;
71172;SDS011;58875;51.996;4.504;2023-07-30T03:31:41;11.96;;;8.06;;
71172;SDS011;58875;51.996;4.504;2023-07-30T03:34:07;10.06;;;6.98;;
71172;SDS011;58875;51.996;4.504;2023-07-30T03:36:32;10.72;;;7.41;;
71172;SDS011;58875;51.996;4.504;2023-07-30T03:38:58;9.68;;;6.75;;
71172;SDS011;58875;51.996;4.504;2023-07-30T03:41:24;9.69;;;6.75;;
71172;SDS011;58875;51.996;4.504;2023-07-30T03:43:50;9.76;;;6.84;;
71172;SDS011;58875;51.996;4.504;2023-07-30T03:46:16;8.96;;;6.43;;
71172;SDS011;58875;51.996;4.504;2023-07-30T03:48:41;7.72;;;5.55;;
71172;SDS011;58875;51.996;4.504;2023-07-30T03:51:07;8.14;;;5.86;;
71172;SDS011;58875;51.996;4.504;2023-07-30T03:53:33;8.23;;;5.93;;
71172;SDS011;58875;51.996;4.504;2023-07-30T03:55:58;8.06;;;5.83;;
71172;SDS011;58875;51.996;4.504;2023-07-30T03:58:24;7.52;;;5.47;;
71172;SDS011;58875;51.996;4.504;2023-07-30T04:00:49;8.37;;;5.94;;
71172;SDS011;58875;51.996;4.504;2023-07-30T04:03:15;7.75;;;5.49;;
71172;SDS011;58875;51.996;4.504;2023-07-30T04:05:40;7.34;;;5.18;;
71172;SDS011;58875;51.996;4.504;2023-07-30T04:08:06;6.74;;;4.80;;
71172;SDS011;58875;51.996;4.504;2023-07-30T04:10:31;6.14;;;4.45;;
71172;SDS011;58875;51.996;4.504;2023-07-30T04:12:57;5.92;;;4.44;;
71172;SDS011;58875;51.996;4.504;2023-07-30T04:15:23;5.36;;;4.12;;
71172;SDS011;58875;51.996;4.504;2023-07-30T04:17:48;5.31;;;4.10;;
71172;SDS011;58875;51.996;4.504;2023-07-30T04:20:14;4.02;;;3.20;;
71172;SDS011;58875;51.996;4.504;2023-07-30T04:22:39;4.31;;;3.43;;
71172;SDS011;58875;51.996;4.504;2023-07-30T04:25:07;5.09;;;4.03;;
71172;SDS011;58875;51.996;4.504;2023-07-30T04:27:33;4.89;;;3.85;;
71172;SDS011;58875;51.996;4.504;2023-07-30T04:29:58;5.75;;;4.39;;
71172;SDS011;58875;51.996;4.504;2023-07-30T04:32:24;5.06;;;3.92;;
71172;SDS011;58875;51.996;4.504;2023-07-30T04:34:49;4.27;;;3.42;;
71172;SDS011;58875;51.996;4.504;2023-07-30T04:37:15;4.36;;;3.48;;
71172;SDS011;58875;51.996;4.504;2023-07-30T04:39:40;3.62;;;2.90;;
71172;SDS011;58875;51.996;4.504;2023-07-30T04:42:06;3.98;;;3.18;;
71172;SDS011;58875;51.996;4.504;2023-07-30T04:44:32;3.86;;;3.07;;
71172;SDS011;58875;51.996;4.504;2023-07-30T04:46:58;4.08;;;3.25;;
71172;SDS011;58875;51.996;4.504;2023-07-30T04:49:23;3.98;;;3.14;;
71172;SDS011;58875;51.996;4.504;2023-07-30T04:51:49;3.95;;;3.14;;
71172;SDS011;58875;51.996;4.504;2023-07-30T04:54:14;3.90;;;3.12;;
71172;SDS011;58875;51.996;4.504;2023-07-30T04:56:40;3.57;;;2.80;;
71172;SDS011;58875;51.996;4.504;2023-07-30T04:59:06;3.90;;;3.05;;
71172;SDS011;58875;51.996;4.504;2023-07-30T05:01:31;4.07;;;3.17;;
71172;SDS011;58875;51.996;4.504;2023-07-30T05:03:57;3.86;;;2.99;;
71172;SDS011;58875;51.996;4.504;2023-07-30T05:06:22;4.11;;;3.24;;
71172;SDS011;58875;51.996;4.504;2023-07-30T05:08:48;5.12;;;3.97;;
71172;SDS011;58875;51.996;4.504;2023-07-30T05:11:14;5.44;;;4.19;;
71172;SDS011;58875;51.996;4.504;2023-07-30T05:13:40;6.45;;;4.95;;
71172;SDS011;58875;51.996;4.504;2023-07-30T05:16:05;6.94;;;5.20;;
71172;SDS011;58875;51.996;4.504;2023-07-30T05:18:31;7.58;;;5.65;;
71172;SDS011;58875;51.996;4.504;2023-07-30T05:20:57;7.40;;;5.60;;
71172;SDS011;58875;51.996;4.504;2023-07-30T05:23:22;8.12;;;5.98;;
71172;SDS011;58875;51.996;4.504;2023-07-30T05:25:48;7.56;;;5.62;;
71172;SDS011;58875;51.996;4.504;2023-07-30T05:28:13;7.48;;;5.53;;
71172;SDS011;58875;51.996;4.504;2023-07-30T05:30:39;7.82;;;5.80;;
71172;SDS011;58875;51.996;4.504;2023-07-30T05:33:04;7.79;;;5.77;;
71172;SDS011;58875;51.996;4.504;2023-07-30T05:35:30;8.05;;;5.92;;
71172;SDS011;58875;51.996;4.504;2023-07-30T05:37:55;7.65;;;5.64;;
71172;SDS011;58875;51.996;4.504;2023-07-30T05:40:21;8.38;;;6.15;;
71172;SDS011;58875;51.996;4.504;2023-07-30T05:42:47;7.67;;;5.70;;
71172;SDS011;58875;51.996;4.504;2023-07-30T05:45:12;7.62;;;5.71;;
71172;SDS011;58875;51.996;4.504;2023-07-30T05:47:38;7.88;;;5.90;;
71172;SDS011;58875;51.996;4.504;2023-07-30T05:50:04;8.11;;;6.03;;
71172;SDS011;58875;51.996;4.504;2023-07-30T05:52:31;8.89;;;6.50;;
71172;SDS011;58875;51.996;4.504;2023-07-30T05:54:56;7.62;;;5.71;;
71172;SDS011;58875;51.996;4.504;2023-07-30T05:57:22;6.89;;;5.36;;
71172;SDS011;58875;51.996;4.504;2023-07-30T05:59:47;7.55;;;5.80;;
71172;SDS011;58875;51.996;4.504;2023-07-30T06:02:13;7.14;;;5.51;;
71172;SDS011;58875;51.996;4.504;2023-07-30T06:04:38;6.42;;;4.96;;
71172;SDS011;58875;51.996;4.504;2023-07-30T06:07:04;7.47;;;5.64;;
71172;SDS011;58875;51.996;4.504;2023-07-30T06:09:29;6.31;;;4.77;;
71172;SDS011;58875;51.996;4.504;2023-07-30T06:11:56;6.68;;;4.98;;
71172;SDS011;58875;51.996;4.504;2023-07-30T06:14:23;6.69;;;5.03;;
71172;SDS011;58875;51.996;4.504;2023-07-30T06:16:49;6.52;;;4.95;;
71172;SDS011;58875;51.996;4.504;2023-07-30T06:19:15;6.98;;;5.21;;
71172;SDS011;58875;51.996;4.504;2023-07-30T06:21:40;6.38;;;4.82;;
71172;SDS011;58875;51.996;4.504;2023-07-30T06:24:06;6.46;;;4.88;;
71172;SDS011;58875;51.996;4.504;2023-07-30T06:26:31;6.54;;;5.03;;
71172;SDS011;58875;51.996;4.504;2023-07-30T06:28:57;6.72;;;5.35;;
71172;SDS011;58875;51.996;4.504;2023-07-30T06:31:23;6.11;;;4.91;;
71172;SDS011;58875;51.996;4.504;2023-07-30T06:33:49;6.22;;;4.99;;
71172;SDS011;58875;51.996;4.504;2023-07-30T06:36:14;6.21;;;4.99;;
71172;SDS011;58875;51.996;4.504;2023-07-30T06:38:40;6.27;;;4.93;;
71172;SDS011;58875;51.996;4.504;2023-07-30T06:41:05;6.27;;;5.00;;
71172;SDS011;58875;51.996;4.504;2023-07-30T06:43:31;6.44;;;5.03;;
71172;SDS011;58875;51.996;4.504;2023-07-30T06:45:56;6.48;;;4.91;;
71172;SDS011;58875;51.996;4.504;2023-07-30T06:48:22;6.87;;;5.13;;
71172;SDS011;58875;51.996;4.504;2023-07-30T06:50:47;7.17;;;5.23;;
71172;SDS011;58875;51.996;4.504;2023-07-30T06:53:13;7.37;;;5.34;;
71172;SDS011;58875;51.996;4.504;2023-07-30T06:55:38;6.69;;;4.96;;
71172;SDS011;58875;51.996;4.504;2023-07-30T06:58:04;7.61;;;5.65;;
71172;SDS011;58875;51.996;4.504;2023-07-30T07:00:29;7.69;;;5.67;;
71172;SDS011;58875;51.996;4.504;2023-07-30T07:02:55;7.86;;;5.97;;
71172;SDS011;58875;51.996;4.504;2023-07-30T07:05:20;7.58;;;5.88;;
71172;SDS011;58875;51.996;4.504;2023-07-30T07:07:46;7.34;;;5.85;;
71172;SDS011;58875;51.996;4.504;2023-07-30T07:10:12;7.39;;;6.02;;
71172;SDS011;58875;51.996;4.504;2023-07-30T07:12:38;7.39;;;6.13;;
71172;SDS011;58875;51.996;4.504;2023-07-30T07:15:05;6.79;;;5.90;;
71172;SDS011;58875;51.996;4.504;2023-07-30T07:17:31;6.49;;;5.62;;
71172;SDS011;58875;51.996;4.504;2023-07-30T07:19:57;7.18;;;6.14;;
71172;SDS011;58875;51.996;4.504;2023-07-30T07:22:22;6.75;;;5.81;;
71172;SDS011;58875;51.996;4.504;2023-07-30T07:24:48;6.77;;;5.75;;
71172;SDS011;58875;51.996;4.504;2023-07-30T07:27:13;6.47;;;5.42;;
71172;SDS011;58875;51.996;4.504;2023-07-30T07:29:39;6.25;;;5.27;;
71172;SDS011;58875;51.996;4.504;2023-07-30T07:32:05;5.87;;;4.89;;
71172;SDS011;58875;51.996;4.504;2023-07-30T07:34:30;6.05;;;4.99;;
71172;SDS011;58875;51.996;4.504;2023-07-30T07:36:56;5.71;;;4.71;;
71172;SDS011;58875;51.996;4.504;2023-07-30T07:39:21;5.82;;;4.65;;
71172;SDS011;58875;51.996;4.504;2023-07-30T07:41:47;5.25;;;4.24;;
71172;SDS011;58875;51.996;4.504;2023-07-30T07:44:12;5.13;;;4.11;;
71172;SDS011;58875;51.996;4.504;2023-07-30T07:46:38;3.87;;;3.09;;
71172;SDS011;58875;51.996;4.504;2023-07-30T07:49:03;3.70;;;2.88;;
71172;SDS011;58875;51.996;4.504;2023-07-30T07:51:29;4.09;;;3.16;;
71172;SDS011;58875;51.996;4.504;2023-07-30T07:53:54;3.75;;;2.92;;
71172;SDS011;58875;51.996;4.504;2023-07-30T07:56:20;4.23;;;3.20;;
71172;SDS011;58875;51.996;4.504;2023-07-30T07:58:45;4.27;;;3.16;;
71172;SDS011;58875;51.996;4.504;2023-07-30T08:01:11;4.29;;;3.18;;
71172;SDS011;58875;51.996;4.504;2023-07-30T08:03:36;4.64;;;3.43;;
71172;SDS011;58875;51.996;4.504;2023-07-30T08:06:02;4.40;;;3.26;;
71172;SDS011;58875;51.996;4.504;2023-07-30T08:08:28;4.22;;;3.20;;
71172;SDS011;58875;51.996;4.504;2023-07-30T08:10:53;4.28;;;3.21;;
71172;SDS011;58875;51.996;4.504;2023-07-30T08:13:19;4.13;;;3.15;;
71172;SDS011;58875;51.996;4.504;2023-07-30T08:15:45;4.04;;;3.15;;
71172;SDS011;58875;51.996;4.504;2023-07-30T08:18:11;4.11;;;3.17;;
71172;SDS011;58875;51.996;4.504;2023-07-30T08:20:37;3.90;;;3.06;;
71172;SDS011;58875;51.996;4.504;2023-07-30T08:23:02;3.92;;;3.07;;
71172;SDS011;58875;51.996;4.504;2023-07-30T08:25:28;3.89;;;3.04;;
71172;SDS011;58875;51.996;4.504;2023-07-30T08:27:53;4.24;;;3.32;;
71172;SDS011;58875;51.996;4.504;2023-07-30T08:30:19;3.98;;;3.08;;
71172;SDS011;58875;51.996;4.504;2023-07-30T08:32:44;4.36;;;3.39;;
71172;SDS011;58875;51.996;4.504;2023-07-30T08:35:10;4.37;;;3.35;;
71172;SDS011;58875;51.996;4.504;2023-07-30T08:37:36;4.84;;;3.67;;
71172;SDS011;58875;51.996;4.504;2023-07-30T08:40:02;4.76;;;3.62;;
71172;SDS011;58875;51.996;4.504;2023-07-30T08:42:28;4.85;;;3.64;;
71172;SDS011;58875;51.996;4.504;2023-07-30T08:44:54;5.29;;;3.94;;
71172;SDS011;58875;51.996;4.504;2023-07-30T08:47:19;4.45;;;3.36;;
71172;SDS011;58875;51.996;4.504;2023-07-30T08:49:45;4.76;;;3.59;;
71172;SDS011;58875;51.996;4.504;2023-07-30T08:52:10;4.62;;;3.52;;
71172;SDS011;58875;51.996;4.504;2023-07-30T08:54:37;4.17;;;3.32;;
71172;SDS011;58875;51.996;4.504;2023-07-30T08:57:04;4.28;;;3.43;;
71172;SDS011;58875;51.996;4.504;2023-07-30T08:59:31;3.94;;;3.21;;
71172;SDS011;58875;51.996;4.504;2023-07-30T09:02:05;4.09;;;3.29;;
71172;SDS011;58875;51.996;4.504;2023-07-30T09:04:36;4.46;;;3.53;;
71172;SDS011;58875;51.996;4.504;2023-07-30T09:07:03;4.31;;;3.35;;
71172;SDS011;58875;51.996;4.504;2023-07-30T09:09:29;4.10;;;3.14;;
71172;SDS011;58875;51.996;4.504;2023-07-30T09:11:54;4.25;;;3.26;;
71172;SDS011;58875;51.996;4.504;2023-07-30T09:14:20;4.61;;;3.51;;
71172;SDS011;58875;51.996;4.504;2023-07-30T09:16:46;4.10;;;3.13;;
71172;SDS011;58875;51.996;4.504;2023-07-30T09:19:18;4.55;;;3.51;;
71172;SDS011;58875;51.996;4.504;2023-07-30T09:21:44;3.92;;;3.03;;
71172;SDS011;58875;51.996;4.504;2023-07-30T09:24:10;4.28;;;3.32;;
71172;SDS011;58875;51.996;4.504;2023-07-30T09:26:42;3.67;;;2.86;;
71172;SDS011;58875;51.996;4.504;2023-07-30T09:29:11;3.76;;;2.97;;
71172;SDS011;58875;51.996;4.504;2023-07-30T09:31:47;3.40;;;2.73;;
71172;SDS011;58875;51.996;4.504;2023-07-30T09:34:17;3.76;;;2.94;;
71172;SDS011;58875;51.996;4.504;2023-07-30T09:36:44;3.85;;;2.97;;
71172;SDS011;58875;51.996;4.504;2023-07-30T09:39:14;3.74;;;2.86;;
71172;SDS011;58875;51.996;4.504;2023-07-30T09:41:47;3.98;;;3.07;;
71172;SDS011;58875;51.996;4.504;2023-07-30T09:44:15;3.91;;;3.02;;
71172;SDS011;58875;51.996;4.504;2023-07-30T09:46:43;3.62;;;2.82;;
71172;SDS011;58875;51.996;4.504;2023-07-30T09:49:10;3.57;;;2.78;;
71172;SDS011;58875;51.996;4.504;2023-07-30T09:51:37;3.88;;;2.99;;
71172;SDS011;58875;51.996;4.504;2023-07-30T09:54:05;4.25;;;3.25;;
71172;SDS011;58875;51.996;4.504;2023-07-30T09:56:36;3.69;;;2.84;;
71172;SDS011;58875;51.996;4.504;2023-07-30T09:59:07;3.93;;;3.02;;
71172;SDS011;58875;51.996;4.504;2023-07-30T10:01:36;3.89;;;2.96;;
71172;SDS011;58875;51.996;4.504;2023-07-30T10:04:08;3.63;;;2.75;;
71172;SDS011;58875;51.996;4.504;2023-07-30T10:06:36;3.78;;;2.86;;
71172;SDS011;58875;51.996;4.504;2023-07-30T10:09:07;3.67;;;2.80;;
71172;SDS011;58875;51.996;4.504;2023-07-30T10:11:36;3.49;;;2.64;;
71172;SDS011;58875;51.996;4.504;2023-07-30T10:14:04;3.85;;;2.94;;
71172;SDS011;58875;51.996;4.504;2023-07-30T10:16:31;3.99;;;3.00;;
71172;SDS011;58875;51.996;4.504;2023-07-30T10:18:57;3.88;;;2.95;;
71172;SDS011;58875;51.996;4.504;2023-07-30T10:21:24;3.78;;;2.96;;
71172;SDS011;58875;51.996;4.504;2023-07-30T10:26:31;4.08;;;3.18;;
71172;SDS011;58875;51.996;4.504;2023-07-30T10:29:18;3.75;;;2.84;;
71172;SDS011;58875;51.996;4.504;2023-07-30T10:31:49;4.04;;;3.01;;
71172;SDS011;58875;51.996;4.504;2023-07-30T10:34:19;3.81;;;2.88;;
71172;SDS011;58875;51.996;4.504;2023-07-30T10:36:46;4.00;;;3.06;;
71172;SDS011;58875;51.996;4.504;2023-07-30T10:39:14;3.66;;;2.77;;
71172;SDS011;58875;51.996;4.504;2023-07-30T10:41:51;4.15;;;3.06;;
71172;SDS011;58875;51.996;4.504;2023-07-30T10:44:32;4.35;;;3.19;;
71172;SDS011;58875;51.996;4.504;2023-07-30T10:46:59;3.58;;;2.68;;
71172;SDS011;58875;51.996;4.504;2023-07-30T10:49:26;3.66;;;2.76;;
71172;SDS011;58875;51.996;4.504;2023-07-30T10:51:53;3.80;;;2.80;;
71172;SDS011;58875;51.996;4.504;2023-07-30T10:54:20;3.24;;;2.42;;
71172;SDS011;58875;51.996;4.504;2023-07-30T10:56:47;3.58;;;2.67;;
71172;SDS011;58875;51.996;4.504;2023-07-30T10:59:13;3.98;;;2.99;;
71172;SDS011;58875;51.996;4.504;2023-07-30T11:01:41;3.70;;;2.80;;
71172;SDS011;58875;51.996;4.504;2023-07-30T11:04:10;3.89;;;2.93;;
71172;SDS011;58875;51.996;4.504;2023-07-30T11:06:49;3.67;;;2.78;;
71172;SDS011;58875;51.996;4.504;2023-07-30T11:09:19;3.43;;;2.63;;
71172;SDS011;58875;51.996;4.504;2023-07-30T11:11:49;3.21;;;2.51;;
71172;SDS011;58875;51.996;4.504;2023-07-30T11:14:16;3.06;;;2.39;;
71172;SDS011;58875;51.996;4.504;2023-07-30T11:17:18;3.47;;;2.70;;
71172;SDS011;58875;51.996;4.504;2023-07-30T11:19:36;3.55;;;2.75;;
71172;SDS011;58875;51.996;4.504;2023-07-30T11:22:09;3.43;;;2.72;;
71172;SDS011;58875;51.996;4.504;2023-07-30T11:24:35;3.57;;;2.85;;
71172;SDS011;58875;51.996;4.504;2023-07-30T11:27:01;3.27;;;2.65;;
71172;SDS011;58875;51.996;4.504;2023-07-30T11:29:28;3.19;;;2.58;;
71172;SDS011;58875;51.996;4.504;2023-07-30T11:31:58;3.28;;;2.66;;
71172;SDS011;58875;51.996;4.504;2023-07-30T11:34:24;3.46;;;2.75;;
71172;SDS011;58875;51.996;4.504;2023-07-30T11:36:52;2.84;;;2.28;;
71172;SDS011;58875;51.996;4.504;2023-07-30T11:39:19;2.72;;;2.19;;
71172;SDS011;58875;51.996;4.504;2023-07-30T11:41:45;2.72;;;2.15;;
71172;SDS011;58875;51.996;4.504;2023-07-30T11:44:34;2.96;;;2.31;;
71172;SDS011;58875;51.996;4.504;2023-07-30T11:47:03;3.06;;;2.42;;
71172;SDS011;58875;51.996;4.504;2023-07-30T11:49:29;3.01;;;2.38;;
71172;SDS011;58875;51.996;4.504;2023-07-30T11:52:12;3.06;;;2.39;;
71172;SDS011;58875;51.996;4.504;2023-07-30T11:54:38;3.26;;;2.54;;
71172;SDS011;58875;51.996;4.504;2023-07-30T11:57:03;2.79;;;2.20;;
71172;SDS011;58875;51.996;4.504;2023-07-30T11:59:30;3.01;;;2.37;;
71172;SDS011;58875;51.996;4.504;2023-07-30T12:01:56;2.87;;;2.23;;
71172;SDS011;58875;51.996;4.504;2023-07-30T12:04:22;3.13;;;2.39;;
71172;SDS011;58875;51.996;4.504;2023-07-30T12:06:50;3.45;;;2.63;;
71172;SDS011;58875;51.996;4.504;2023-07-30T12:09:21;3.27;;;2.50;;
71172;SDS011;58875;51.996;4.504;2023-07-30T12:11:49;2.94;;;2.26;;
71172;SDS011;58875;51.996;4.504;2023-07-30T12:14:21;2.49;;;1.95;;
71172;SDS011;58875;51.996;4.504;2023-07-30T12:16:54;2.38;;;1.87;;
71172;SDS011;58875;51.996;4.504;2023-07-30T12:19:20;2.11;;;1.63;;
71172;SDS011;58875;51.996;4.504;2023-07-30T12:21:46;2.44;;;1.86;;
71172;SDS011;58875;51.996;4.504;2023-07-30T12:24:11;2.68;;;2.05;;
71172;SDS011;58875;51.996;4.504;2023-07-30T12:26:37;2.65;;;2.01;;
71172;SDS011;58875;51.996;4.504;2023-07-30T12:29:02;2.69;;;2.05;;
71172;SDS011;58875;51.996;4.504;2023-07-30T12:31:28;2.75;;;2.09;;
71172;SDS011;58875;51.996;4.504;2023-07-30T12:33:53;2.92;;;2.24;;
71172;SDS011;58875;51.996;4.504;2023-07-30T12:36:18;2.65;;;2.08;;
71172;SDS011;58875;51.996;4.504;2023-07-30T12:38:44;2.01;;;1.62;;
71172;SDS011;58875;51.996;4.504;2023-07-30T12:41:09;2.21;;;1.78;;
71172;SDS011;58875;51.996;4.504;2023-07-30T12:43:35;2.52;;;2.02;;
71172;SDS011;58875;51.996;4.504;2023-07-30T12:46:00;2.90;;;2.29;;
71172;SDS011;58875;51.996;4.504;2023-07-30T12:48:26;2.74;;;2.15;;
71172;SDS011;58875;51.996;4.504;2023-07-30T12:50:51;2.81;;;2.17;;
71172;SDS011;58875;51.996;4.504;2023-07-30T12:53:17;2.97;;;2.28;;
71172;SDS011;58875;51.996;4.504;2023-07-30T12:55:42;2.77;;;2.11;;
71172;SDS011;58875;51.996;4.504;2023-07-30T12:58:08;2.93;;;2.24;;
71172;SDS011;58875;51.996;4.504;2023-07-30T13:00:33;2.85;;;2.19;;
71172;SDS011;58875;51.996;4.504;2023-07-30T13:02:59;3.24;;;2.46;;
71172;SDS011;58875;51.996;4.504;2023-07-30T13:05:25;3.58;;;2.68;;
71172;SDS011;58875;51.996;4.504;2023-07-30T13:07:51;4.32;;;3.22;;
71172;SDS011;58875;51.996;4.504;2023-07-30T13:10:16;3.62;;;2.72;;
71172;SDS011;58875;51.996;4.504;2023-07-30T13:12:42;3.83;;;2.79;;
71172;SDS011;58875;51.996;4.504;2023-07-30T13:15:08;4.09;;;2.95;;
71172;SDS011;58875;51.996;4.504;2023-07-30T13:17:37;4.79;;;3.43;;
71172;SDS011;58875;51.996;4.504;2023-07-30T13:20:03;4.54;;;3.25;;
71172;SDS011;58875;51.996;4.504;2023-07-30T13:22:29;4.43;;;3.20;;
71172;SDS011;58875;51.996;4.504;2023-07-30T13:24:55;4.79;;;3.44;;
71172;SDS011;58875;51.996;4.504;2023-07-30T13:27:20;4.60;;;3.27;;
71172;SDS011;58875;51.996;4.504;2023-07-30T13:29:45;4.32;;;3.11;;
71172;SDS011;58875;51.996;4.504;2023-07-30T13:32:13;4.86;;;3.51;;
71172;SDS011;58875;51.996;4.504;2023-07-30T13:34:38;4.76;;;3.48;;
71172;SDS011;58875;51.996;4.504;2023-07-30T13:37:04;5.11;;;3.73;;
71172;SDS011;58875;51.996;4.504;2023-07-30T13:39:30;5.91;;;4.25;;
71172;SDS011;58875;51.996;4.504;2023-07-30T13:41:55;5.58;;;3.97;;
71172;SDS011;58875;51.996;4.504;2023-07-30T13:44:20;5.05;;;3.59;;
71172;SDS011;58875;51.996;4.504;2023-07-30T13:46:46;5.51;;;3.89;;
71172;SDS011;58875;51.996;4.504;2023-07-30T13:49:11;5.98;;;4.22;;
71172;SDS011;58875;51.996;4.504;2023-07-30T13:51:37;6.90;;;4.84;;
71172;SDS011;58875;51.996;4.504;2023-07-30T13:54:02;6.27;;;4.39;;
71172;SDS011;58875;51.996;4.504;2023-07-30T13:56:28;5.67;;;4.07;;
71172;SDS011;58875;51.996;4.504;2023-07-30T13:58:55;6.46;;;4.64;;
71172;SDS011;58875;51.996;4.504;2023-07-30T14:01:21;7.48;;;5.28;;
71172;SDS011;58875;51.996;4.504;2023-07-30T14:03:46;6.41;;;4.57;;
71172;SDS011;58875;51.996;4.504;2023-07-30T14:06:12;6.69;;;4.73;;
71172;SDS011;58875;51.996;4.504;2023-07-30T14:08:38;6.63;;;4.66;;
71172;SDS011;58875;51.996;4.504;2023-07-30T14:11:04;6.20;;;4.46;;
71172;SDS011;58875;51.996;4.504;2023-07-30T14:13:29;6.52;;;4.77;;
71172;SDS011;58875;51.996;4.504;2023-07-30T14:15:55;6.45;;;4.70;;
71172;SDS011;58875;51.996;4.504;2023-07-30T14:18:21;6.88;;;5.02;;
71172;SDS011;58875;51.996;4.504;2023-07-30T14:20:47;6.74;;;4.88;;
71172;SDS011;58875;51.996;4.504;2023-07-30T14:23:12;6.38;;;4.70;;
71172;SDS011;58875;51.996;4.504;2023-07-30T14:25:38;6.41;;;4.69;;
71172;SDS011;58875;51.996;4.504;2023-07-30T14:28:04;6.47;;;4.75;;
71172;SDS011;58875;51.996;4.504;2023-07-30T14:30:29;7.03;;;5.12;;
71172;SDS011;58875;51.996;4.504;2023-07-30T14:32:55;6.50;;;4.78;;
71172;SDS011;58875;51.996;4.504;2023-07-30T14:35:21;6.58;;;4.89;;
71172;SDS011;58875;51.996;4.504;2023-07-30T14:37:46;6.80;;;5.04;;
71172;SDS011;58875;51.996;4.504;2023-07-30T14:40:12;6.44;;;4.76;;
71172;SDS011;58875;51.996;4.504;2023-07-30T14:42:38;6.98;;;5.10;;
71172;SDS011;58875;51.996;4.504;2023-07-30T14:45:05;7.63;;;5.65;;